createdAt,value
2023-04-11T00:03:39.406Z,48.32
2023-04-11T00:07:40.960Z,47.56
2023-04-11T00:11:43.139Z,48.35
2023-04-11T00:15:44.533Z,47.87
2023-04-11T00:19:46.556Z,47.20
2023-04-11T00:23:47.979Z,46.43
2023-04-11T00:27:49.340Z,47.65
2023-04-11T00:31:52.661Z,47.77
2023-04-11T00:35:54.260Z,48.17
2023-04-11T00:39:56.145Z,48.23
2023-04-11T00:43:58.610Z,48.22
2023-04-11T00:48:01.271Z,49.02
2023-04-11T00:52:04.010Z,47.36
2023-04-11T00:56:06.663Z,48.10
2023-04-11T01:00:10.500Z,47.43
2023-04-11T01:04:12.606Z,48.94
2023-04-11T01:08:14.802Z,47.82
2023-04-11T01:12:17.393Z,48.38
2023-04-11T01:16:22.051Z,49.43
2023-04-11T01:20:24.184Z,48.96
2023-04-11T01:24:25.906Z,48.47
2023-04-11T01:28:27.331Z,47.28
2023-04-11T01:32:28.882Z,48.22
2023-04-11T01:36:31.601Z,48.01
2023-04-11T01:40:33.220Z,48.60
2023-04-11T01:44:36.444Z,48.72
2023-04-11T01:48:38.985Z,48.18
2023-04-11T01:52:40.966Z,47.41
2023-04-11T01:56:43.254Z,46.57
2023-04-11T02:00:44.817Z,47.40
2023-04-11T02:04:46.444Z,47.99
2023-04-11T02:08:49.403Z,47.56
2023-04-11T02:12:50.868Z,48.38
2023-04-11T02:16:54.881Z,47.99
2023-04-11T02:20:56.303Z,48.83
2023-04-11T02:24:57.692Z,48.99
2023-04-11T02:28:59.568Z,48.92
2023-04-11T02:33:01.199Z,49.09
2023-04-11T02:37:02.713Z,48.50
2023-04-11T02:41:04.413Z,49.52
2023-04-11T02:45:08.245Z,49.96
2023-04-11T02:49:09.845Z,52.09
2023-04-11T02:53:11.826Z,60.78
2023-04-11T02:57:20.177Z,62.76
2023-04-11T03:01:24.786Z,65.63
2023-04-11T03:05:27.832Z,76.61
2023-04-11T03:09:29.253Z,82.56
2023-04-11T03:13:30.910Z,90.48
2023-04-11T03:17:33.940Z,94.35
2023-04-11T03:21:36.348Z,98.73
2023-04-11T03:25:38.915Z,100.00
2023-04-11T03:29:40.631Z,100.00
2023-04-11T03:33:49.362Z,100.00
2023-04-11T03:37:50.933Z,100.00
2023-04-11T03:41:52.503Z,100.00
2023-04-11T03:45:54.011Z,100.00
2023-04-11T03:50:09.878Z,100.00
2023-04-11T03:54:17.831Z,100.00
2023-04-11T03:58:19.538Z,100.00
2023-04-11T04:02:21.731Z,100.00
2023-04-11T04:06:26.922Z,100.00
2023-04-11T04:10:28.606Z,100.00
2023-04-11T04:14:30.119Z,100.00
2023-04-11T04:18:31.754Z,100.00
2023-04-11T04:22:35.071Z,100.00
2023-04-11T04:26:40.885Z,100.00
2023-04-11T04:31:04.066Z,100.00
2023-04-11T04:35:16.666Z,100.00
2023-04-11T04:39:19.356Z,100.00
2023-04-11T04:43:24.946Z,100.00
2023-04-11T04:47:35.742Z,100.00
2023-04-11T04:51:38.491Z,100.00
2023-04-11T04:55:40.534Z,100.00
2023-04-11T04:59:44.668Z,100.00
2023-04-11T05:03:50.879Z,100.00
2023-04-11T05:08:01.077Z,100.00
2023-04-11T05:12:06.695Z,100.00
2023-04-11T05:16:10.981Z,100.00
2023-04-11T05:20:13.517Z,100.00
2023-04-11T05:24:16.643Z,100.00
2023-04-11T05:28:18.494Z,100.00
2023-04-11T05:32:21.056Z,100.00
2023-04-11T05:36:23.041Z,100.00
2023-04-11T05:40:24.540Z,100.00
2023-04-11T05:44:25.997Z,100.00
2023-04-11T05:48:27.379Z,100.00
2023-04-11T05:52:28.848Z,100.00
2023-04-11T05:56:30.256Z,100.00
2023-04-11T06:00:32.398Z,100.00
2023-04-11T06:04:34.113Z,100.00
2023-04-11T06:08:35.769Z,100.00
2023-04-11T06:12:37.217Z,100.00
2023-04-11T06:16:38.858Z,100.00
2023-04-11T06:20:40.455Z,100.00
2023-04-11T06:24:42.075Z,100.00
2023-04-11T06:28:43.462Z,100.00
2023-04-11T06:32:45.190Z,100.00
2023-04-11T06:36:49.696Z,100.00
2023-04-11T06:40:52.185Z,100.00
2023-04-11T06:44:53.628Z,100.00
2023-04-11T06:48:56.013Z,100.00
2023-04-11T06:52:58.368Z,100.00
2023-04-11T06:56:59.936Z,100.00
2023-04-11T07:01:01.548Z,100.00
2023-04-11T07:05:03.638Z,100.00
2023-04-11T07:09:05.784Z,100.00
2023-04-11T07:13:07.157Z,100.00
2023-04-11T07:17:08.613Z,96.36
2023-04-11T07:21:13.860Z,87.23
2023-04-11T07:25:15.421Z,89.87
2023-04-11T07:29:16.783Z,85.49
2023-04-11T07:33:18.146Z,87.95
2023-04-11T07:37:19.568Z,81.99
2023-04-11T07:41:20.982Z,77.73
2023-04-11T07:45:22.586Z,72.47
2023-04-11T07:49:24.043Z,73.42
2023-04-11T07:53:27.048Z,71.64
2023-04-11T07:57:29.230Z,72.33
2023-04-11T08:01:31.204Z,69.92
2023-04-11T08:05:34.766Z,72.54
2023-04-11T08:09:36.260Z,73.61
2023-04-11T08:13:37.716Z,76.63
2023-04-11T08:17:40.909Z,76.19
2023-04-11T08:21:42.834Z,71.78
2023-04-11T08:25:44.604Z,68.40
2023-04-11T08:29:46.791Z,67.96
2023-04-11T08:33:48.505Z,67.39
2023-04-11T08:37:49.894Z,71.00
2023-04-11T08:41:51.517Z,73.26
2023-04-11T08:45:53.757Z,70.22
2023-04-11T08:49:56.491Z,69.69
2023-04-11T08:54:05.620Z,70.91
2023-04-11T08:58:06.994Z,70.91
2023-04-11T09:02:09.444Z,65.80
2023-04-11T09:06:11.384Z,65.62
2023-04-11T09:10:22.170Z,64.89
2023-04-11T09:14:27.025Z,67.46
2023-04-11T09:18:35.355Z,67.54
2023-04-11T09:22:36.931Z,69.64
2023-04-11T09:26:38.344Z,71.99
2023-04-11T09:30:50.633Z,71.06
2023-04-11T09:34:52.041Z,70.85
2023-04-11T09:38:53.894Z,70.63
2023-04-11T09:42:58.226Z,70.44
2023-04-11T09:46:59.967Z,71.06
2023-04-11T09:51:05.825Z,70.58
2023-04-11T09:55:08.091Z,70.98
2023-04-11T09:59:09.671Z,67.35
2023-04-11T10:03:11.148Z,65.56
2023-04-11T10:07:14.211Z,63.04
2023-04-11T10:11:18.493Z,64.58
2023-04-11T10:15:20.056Z,63.76
2023-04-11T10:19:21.621Z,60.52
2023-04-11T10:23:23.039Z,60.92
2023-04-11T10:27:49.938Z,67.20
2023-04-11T10:32:12.823Z,74.03
2023-04-11T10:36:14.296Z,70.32
2023-04-11T10:40:16.204Z,70.57
2023-04-11T10:44:23.266Z,68.62
2023-04-11T10:48:24.642Z,64.55
2023-04-11T10:52:27.114Z,69.63
2023-04-11T10:56:57.768Z,66.89
2023-04-11T11:01:00.072Z,66.49
2023-04-11T11:05:02.354Z,63.32
2023-04-11T11:09:21.338Z,65.39
2023-04-11T11:13:22.705Z,63.83
2023-04-11T11:17:24.260Z,66.02
2023-04-11T11:21:28.641Z,69.08
2023-04-11T11:25:31.027Z,64.77
2023-04-11T11:29:35.695Z,62.82
2023-04-11T11:33:40.705Z,56.41
2023-04-11T11:37:42.310Z,56.82
2023-04-11T11:41:43.759Z,54.44
2023-04-11T11:45:45.675Z,54.71
2023-04-11T11:49:52.544Z,56.77
2023-04-11T11:54:11.233Z,59.84
2023-04-11T11:58:12.670Z,58.77
2023-04-11T12:02:16.259Z,62.41
2023-04-11T12:06:17.861Z,60.09
2023-04-11T12:10:19.247Z,57.66
2023-04-11T12:14:23.835Z,57.71
2023-04-11T12:18:28.374Z,58.28
2023-04-11T12:22:29.741Z,64.99
2023-04-11T12:26:31.107Z,66.87
2023-04-11T12:30:32.876Z,63.92
2023-04-11T12:34:34.272Z,65.08
2023-04-11T12:38:35.668Z,62.04
2023-04-11T12:46:45.533Z,59.43
2023-04-11T12:50:46.922Z,54.67
2023-04-11T12:54:48.302Z,57.16
2023-04-11T12:58:49.720Z,57.42
2023-04-11T13:02:51.800Z,59.58
2023-04-11T13:06:53.343Z,61.89
2023-04-11T13:10:55.939Z,59.96
2023-04-11T13:14:57.414Z,60.15
2023-04-11T13:18:58.893Z,57.77
2023-04-11T13:23:00.438Z,59.73
2023-04-11T13:27:01.847Z,61.40
2023-04-11T13:31:03.268Z,61.93
2023-04-11T13:35:05.800Z,61.60
2023-04-11T13:39:07.812Z,61.78
2023-04-11T13:43:09.893Z,62.29
2023-04-11T13:47:11.350Z,63.19
2023-04-11T13:51:13.166Z,64.12
2023-04-11T13:55:14.734Z,64.98
2023-04-11T13:59:16.222Z,67.42
2023-04-11T14:03:17.975Z,67.68
2023-04-11T14:07:19.447Z,69.79
2023-04-11T14:11:21.028Z,69.88
2023-04-11T14:15:22.541Z,71.37
2023-04-11T14:19:24.846Z,72.65
2023-04-11T14:23:26.650Z,72.50
2023-04-11T14:27:28.168Z,73.11
2023-04-11T14:31:29.747Z,80.66
2023-04-11T14:35:31.458Z,87.45
2023-04-11T14:39:33.006Z,95.43
2023-04-11T14:43:34.437Z,96.57
2023-04-11T14:47:35.986Z,96.53
2023-04-11T14:51:38.728Z,96.69
2023-04-11T14:55:42.727Z,98.69
2023-04-11T14:59:44.227Z,100.00
2023-04-11T15:03:46.182Z,100.00
2023-04-11T15:07:49.985Z,100.00
2023-04-11T15:11:51.541Z,98.63
2023-04-11T15:15:53.557Z,94.73
2023-04-11T15:19:54.975Z,88.56
2023-04-11T15:23:56.474Z,88.98
2023-04-11T15:27:57.986Z,90.73
2023-04-11T15:32:02.924Z,90.37
2023-04-11T15:36:04.836Z,87.42
2023-04-11T15:40:07.104Z,86.24
2023-04-11T15:44:08.913Z,85.83
2023-04-11T15:48:13.796Z,83.97
2023-04-11T15:52:16.644Z,82.25
2023-04-11T15:56:19.967Z,83.79
2023-04-11T16:00:24.366Z,82.96
2023-04-11T16:04:27.079Z,80.61
2023-04-11T16:08:29.542Z,79.51
2023-04-11T16:12:30.962Z,78.31
2023-04-11T16:16:32.450Z,76.38
2023-04-11T16:20:34.039Z,78.11
2023-04-11T16:24:35.582Z,75.55
2023-04-11T16:28:36.950Z,79.42
2023-04-11T16:32:38.540Z,82.35
2023-04-11T16:36:40.059Z,81.99
2023-04-11T16:40:41.441Z,78.61
2023-04-11T16:44:42.916Z,79.54
2023-04-11T16:48:44.361Z,77.29
2023-04-11T16:52:45.962Z,77.31
2023-04-11T16:56:48.033Z,75.96
2023-04-11T17:00:51.022Z,75.42
2023-04-11T17:04:52.833Z,76.00
2023-04-11T17:08:54.311Z,77.88
2023-04-11T17:12:58.203Z,76.29
2023-04-11T17:16:59.621Z,78.01
2023-04-11T17:21:01.171Z,77.66
2023-04-11T17:25:02.794Z,78.36
2023-04-11T17:29:06.425Z,77.99
2023-04-11T17:33:08.595Z,79.41
2023-04-11T17:37:10.065Z,81.46
2023-04-11T17:41:14.944Z,82.56
2023-04-11T17:45:18.566Z,80.25
2023-04-11T17:49:21.527Z,79.91
2023-04-11T17:53:22.961Z,80.43
2023-04-11T17:57:24.330Z,84.25
2023-04-11T18:01:31.904Z,84.20
2023-04-11T18:05:34.891Z,87.11
2023-04-11T18:09:36.239Z,85.89
2023-04-11T18:13:37.600Z,83.68
2023-04-11T18:17:40.450Z,82.79
2023-04-11T18:21:41.857Z,82.35
2023-04-11T18:25:43.258Z,83.53
2023-04-11T18:29:45.299Z,82.22
2023-04-11T18:33:47.989Z,83.78
2023-04-11T18:37:50.216Z,81.32
2023-04-11T18:41:51.608Z,80.98
2023-04-11T18:45:53.080Z,81.30
2023-04-11T18:49:54.527Z,84.91
2023-04-11T18:53:56.422Z,82.52
2023-04-11T18:58:00.450Z,80.45
2023-04-11T19:02:02.523Z,79.64
2023-04-11T19:06:04.986Z,82.15
2023-04-11T19:10:08.022Z,85.74
2023-04-11T19:14:09.520Z,82.04
2023-04-11T19:18:11.150Z,84.91
2023-04-11T19:22:12.572Z,85.36
2023-04-11T19:26:14.729Z,88.34
2023-04-11T19:30:16.269Z,87.82
2023-04-11T19:34:17.641Z,84.71
2023-04-11T19:38:18.993Z,84.42
2023-04-11T19:42:20.400Z,86.63
2023-04-11T19:46:21.902Z,87.31
2023-04-11T19:50:23.386Z,87.20
2023-04-11T19:54:24.834Z,87.37
2023-04-11T19:58:26.540Z,89.06
2023-04-11T20:02:28.061Z,89.72
2023-04-11T20:06:29.580Z,88.29
2023-04-11T20:10:31.583Z,90.73
2023-04-11T20:14:33.448Z,88.79
2023-04-11T20:18:34.871Z,90.46
2023-04-11T20:22:38.210Z,86.10
2023-04-11T20:26:39.710Z,87.64
2023-04-11T20:30:41.126Z,88.70
2023-04-11T20:34:42.519Z,88.44
2023-04-11T20:38:44.003Z,88.45
2023-04-11T20:42:45.967Z,88.13
2023-04-11T20:46:47.990Z,91.11
2023-04-11T20:50:49.940Z,92.63
2023-04-11T20:54:51.299Z,90.78
2023-04-11T20:58:52.675Z,89.71
2023-04-11T21:02:54.202Z,90.52
2023-04-11T21:06:56.814Z,91.12
2023-04-11T21:10:58.273Z,89.71
2023-04-11T21:14:59.834Z,91.52
2023-04-11T21:19:01.219Z,88.65
2023-04-11T21:23:02.767Z,89.18
2023-04-11T21:27:04.230Z,90.01
2023-04-11T21:31:06.059Z,88.35
2023-04-11T21:35:09.719Z,90.74
2023-04-11T21:39:11.357Z,92.25
2023-04-11T21:43:13.108Z,94.26
2023-04-11T21:47:14.586Z,95.20
2023-04-11T21:51:16.495Z,92.64
2023-04-11T21:55:18.005Z,96.97
2023-04-11T21:59:19.493Z,93.69
2023-04-11T22:03:21.016Z,92.54
2023-04-11T22:07:26.388Z,93.07
2023-04-11T22:11:27.827Z,92.39
2023-04-11T22:15:33.084Z,94.43
2023-04-11T22:19:35.014Z,93.82
2023-04-11T22:23:36.376Z,94.65
2023-04-11T22:27:38.254Z,96.36
2023-04-11T22:31:39.667Z,97.50
2023-04-11T22:35:43.850Z,99.51
2023-04-11T22:39:45.580Z,100.00
2023-04-11T22:43:46.950Z,100.00
2023-04-11T22:47:48.396Z,100.00
2023-04-11T22:51:49.835Z,100.00
2023-04-11T22:55:51.618Z,100.00
2023-04-11T22:59:52.966Z,100.00
2023-04-11T23:03:54.456Z,100.00
2023-04-11T23:07:55.886Z,100.00
2023-04-11T23:11:57.289Z,100.00
2023-04-11T23:16:01.505Z,100.00
2023-04-11T23:20:12.543Z,99.99
2023-04-11T23:24:13.976Z,100.00
2023-04-11T23:28:15.840Z,99.41
2023-04-11T23:32:18.779Z,99.01
2023-04-11T23:36:20.259Z,100.00
2023-04-11T23:40:22.691Z,100.00
2023-04-11T23:44:24.050Z,99.30
2023-04-11T23:48:25.405Z,96.76
2023-04-11T23:52:26.895Z,98.25
2023-04-11T23:56:28.424Z,97.93
